createdAt,value
2022-08-07T00:19:05.604Z,100613.75
2022-08-07T00:39:09.386Z,100628.38
2022-08-07T00:59:35.678Z,100623.22
2022-08-07T01:19:41.886Z,100616.91
2022-08-07T01:39:47.195Z,100616.56
2022-08-07T01:59:59.819Z,100620.16
2022-08-07T02:20:09.565Z,100622.00
2022-08-07T02:40:34.936Z,100628.34
2022-08-07T03:00:41.007Z,100641.06
2022-08-07T03:20:51.113Z,100650.13
2022-08-07T03:40:57.780Z,100648.94
2022-08-07T04:01:04.067Z,100658.31
2022-08-07T04:21:12.732Z,100676.69
2022-08-07T04:41:20.235Z,100710.44
2022-08-07T05:02:09.140Z,100720.09
2022-08-07T05:22:27.645Z,100727.66
2022-08-07T05:42:34.436Z,100744.81
2022-08-07T06:02:40.885Z,100765.38
2022-08-07T06:23:01.856Z,100758.87
2022-08-07T06:43:21.277Z,100768.13
2022-08-07T07:03:48.972Z,100796.28
2022-08-07T07:24:08.445Z,100801.22
2022-08-07T07:44:21.463Z,100798.19
2022-08-07T08:25:18.945Z,100799.09
2022-08-07T08:45:59.532Z,100796.03
2022-08-07T09:06:11.915Z,100802.78
2022-08-07T09:26:17.211Z,100799.00
2022-08-07T09:47:51.091Z,100787.38
2022-08-07T10:07:31.762Z,100785.09
2022-08-07T10:28:02.526Z,100764.00
2022-08-07T10:48:09.719Z,100740.94
2022-08-07T11:08:35.599Z,100716.22
2022-08-07T11:28:55.416Z,100701.47
2022-08-07T11:49:51.228Z,100679.22
2022-08-07T12:10:05.910Z,100674.81
2022-08-07T12:30:11.746Z,100643.81
2022-08-07T12:50:40.380Z,100629.72
2022-08-07T13:11:23.900Z,100608.31
2022-08-07T13:31:54.989Z,100604.03
2022-08-07T13:52:22.598Z,100582.56
2022-08-07T14:12:54.010Z,100560.34
2022-08-07T14:33:01.799Z,100541.63
2022-08-07T14:53:09.809Z,100520.62
2022-08-07T15:13:18.958Z,100510.47
2022-08-07T15:33:22.691Z,100496.69
2022-08-07T15:53:52.918Z,100477.47
2022-08-07T16:14:17.170Z,100472.19
2022-08-07T16:34:41.916Z,100466.25
2022-08-07T16:55:21.691Z,100472.38
2022-08-07T17:15:51.596Z,100462.25
2022-08-07T17:36:20.505Z,100485.47
2022-08-07T17:56:35.097Z,100478.44
2022-08-07T18:17:00.474Z,100504.41
2022-08-07T18:38:57.223Z,100533.50
2022-08-07T18:58:15.720Z,100548.63
2022-08-07T19:18:35.017Z,100573.25
2022-08-07T19:38:53.115Z,100596.44
2022-08-07T19:58:58.714Z,100632.12
2022-08-07T20:19:05.006Z,100649.09
2022-08-07T20:39:30.540Z,100660.72
2022-08-07T21:00:06.501Z,100674.34
2022-08-07T21:20:04.384Z,100678.16
2022-08-07T21:40:13.902Z,100684.91
2022-08-07T22:00:22.997Z,100710.56
2022-08-07T22:20:49.342Z,100724.00
2022-08-07T22:41:03.834Z,100727.28
2022-08-07T23:01:50.687Z,100734.91
2022-08-07T23:21:54.635Z,100744.00
2022-08-07T23:42:36.363Z,100752.34
